Terminal Aerodrome Forecast
Issued by NWS Upton, NY

Home | Current Version | Previous Version | Text Only | Print | Product List | Glossary On
Versions: 1 2 3 4 5 6 7 8 9 10 11 12 13 14 15 16 17 18 19 20 21 22 23 24 25
771
FTUS41 KOKX 100832 AAA
TAFISP
TAF AMD
KISP 100832Z 1009/1106 VRB02KT 6SM -SN FEW020 OVC050
      TEMPO 1009/1012 2SM -SN BKN008 OVC015
     FM101500 27010KT P6SM SCT015 BKN035
     FM101900 27013G21KT P6SM BKN040
     FM110000 27010KT P6SM BKN040=

USA.gov is the U.S. government's official web portal to all federal, state and local government web resources and services.